Search for airport 
image banner adimage banner adimage banner ad
image banner ad

KPTV - Porterville Muni

Located in Porterville, United States

ICAO - PTV, IATA -

Data provided by Airmate  

General information

Coordinates: N36°1'46" W119°3'46"
Elevation is 443 feet MSL.
Magnetic variation is 15° East
View others Airports in California

Operational data

Special qualification required
Current time UTC:
Current local time:
Weather
METAR: KPTV 221256Z AUTO 18003KT 10SM CLR 16/07 A2990 RMK AO2 SLP121 T01610067
View NOTAMs / SUP AIP / TFR affecting this airport [VIEW]
Communications frequencies: [VIEW]

Runways:

RWY identifierQFULength (ft)Width (ft)SurfaceLDA (ft)
12135°5960150ASPH
30315°5960150ASPH

Airport contact information

Address: Porterville United States

Satellite view of KPTV